createdAt,value
2022-12-17T00:02:29.440Z,28.10
2022-12-17T00:05:15.007Z,25.73
2022-12-17T00:08:00.766Z,32.80
2022-12-17T00:10:46.234Z,32.90
2022-12-17T00:13:38.381Z,35.43
2022-12-17T00:16:24.538Z,39.70
2022-12-17T00:19:11.114Z,36.23
2022-12-17T00:21:56.492Z,36.27
2022-12-17T00:24:42.231Z,28.57
2022-12-17T00:27:27.932Z,33.07
2022-12-17T00:30:13.544Z,31.60
2022-12-17T00:32:59.246Z,34.90
2022-12-17T00:35:46.716Z,31.40
2022-12-17T00:38:34.978Z,31.80
2022-12-17T00:41:21.870Z,26.77
2022-12-17T00:44:07.482Z,30.23
2022-12-17T00:46:53.156Z,25.10
2022-12-17T00:49:39.790Z,30.53
2022-12-17T00:52:25.432Z,29.30
2022-12-17T00:55:11.161Z,28.03
2022-12-17T00:57:56.773Z,22.57
2022-12-17T01:00:42.251Z,29.07
2022-12-17T01:03:28.973Z,27.97
2022-12-17T01:06:14.654Z,26.50
2022-12-17T01:09:00.217Z,33.77
2022-12-17T01:11:46.831Z,33.40
2022-12-17T01:14:33.301Z,29.50
2022-12-17T01:17:19.071Z,26.80
2022-12-17T01:20:05.649Z,28.07
2022-12-17T01:22:51.148Z,26.77
2022-12-17T01:25:37.110Z,27.00
2022-12-17T01:28:23.048Z,27.03
2022-12-17T01:31:08.847Z,28.80
2022-12-17T01:33:54.420Z,30.73
2022-12-17T01:36:40.032Z,20.23
2022-12-17T01:39:26.295Z,30.93
2022-12-17T01:42:12.084Z,28.73
2022-12-17T01:45:00.521Z,30.00
2022-12-17T01:47:46.045Z,31.93
2022-12-17T01:50:31.785Z,34.67
2022-12-17T01:53:17.359Z,30.13
2022-12-17T01:56:03.141Z,28.40
2022-12-17T01:58:48.809Z,27.90
2022-12-17T02:01:34.741Z,27.80
2022-12-17T02:04:20.103Z,30.13
2022-12-17T02:07:05.411Z,29.87
2022-12-17T02:09:59.539Z,25.67
2022-12-17T02:12:53.806Z,27.87
2022-12-17T02:15:51.894Z,26.00
2022-12-17T02:18:37.476Z,30.53
2022-12-17T02:21:24.093Z,35.87
2022-12-17T02:24:15.593Z,34.10
2022-12-17T02:27:04.477Z,33.70
2022-12-17T02:29:52.951Z,35.90
2022-12-17T02:32:38.595Z,25.10
2022-12-17T02:35:24.098Z,27.00
2022-12-17T02:38:09.582Z,35.00
2022-12-17T02:40:54.929Z,29.23
2022-12-17T02:43:40.757Z,28.63
2022-12-17T02:46:26.762Z,27.30
2022-12-17T02:49:12.476Z,24.40
2022-12-17T02:51:58.342Z,25.97
2022-12-17T02:54:47.449Z,31.83
2022-12-17T02:57:33.053Z,27.27
2022-12-17T03:00:18.526Z,33.87
2022-12-17T03:03:03.913Z,37.73
2022-12-17T03:05:49.457Z,34.10
2022-12-17T03:08:35.087Z,29.73
2022-12-17T03:11:21.007Z,31.70
2022-12-17T03:14:07.513Z,42.55
2022-12-17T03:16:54.758Z,40.67
2022-12-17T03:19:40.325Z,32.90
2022-12-17T03:22:26.861Z,34.27
2022-12-17T03:25:12.828Z,43.23
2022-12-17T03:27:58.705Z,44.00
2022-12-17T03:30:48.934Z,41.78
2022-12-17T03:33:29.960Z,33.20
2022-12-17T03:36:16.438Z,40.93
2022-12-17T03:39:02.790Z,33.47
2022-12-17T03:41:48.237Z,31.87
2022-12-17T03:44:34.723Z,33.90
2022-12-17T03:47:20.521Z,37.47
2022-12-17T03:50:06.913Z,43.87
2022-12-17T03:52:52.676Z,45.53
2022-12-17T03:55:38.445Z,50.28
2022-12-17T03:58:24.133Z,41.67
2022-12-17T04:01:09.983Z,47.53
2022-12-17T04:03:55.520Z,44.07
2022-12-17T04:06:41.238Z,41.50
2022-12-17T04:09:27.507Z,36.73
2022-12-17T04:12:13.319Z,35.57
2022-12-17T04:14:59.647Z,36.07
2022-12-17T04:17:45.526Z,30.47
2022-12-17T04:20:31.374Z,25.80
2022-12-17T04:23:17.055Z,24.47
2022-12-17T04:26:02.993Z,24.10
2022-12-17T04:28:48.634Z,30.05
2022-12-17T04:31:34.761Z,28.63
2022-12-17T04:34:20.686Z,29.67
2022-12-17T04:37:06.260Z,32.28
2022-12-17T04:39:51.969Z,32.97
2022-12-17T04:42:37.376Z,30.70
2022-12-17T04:45:24.030Z,33.28
2022-12-17T04:48:09.556Z,28.57
2022-12-17T04:50:55.317Z,27.77
2022-12-17T04:53:41.174Z,25.47
2022-12-17T04:56:27.160Z,29.80
2022-12-17T04:59:13.027Z,30.70
2022-12-17T05:01:59.665Z,29.67
2022-12-17T05:04:44.942Z,21.27
2022-12-17T05:07:30.811Z,24.67
2022-12-17T05:10:16.618Z,21.13
2022-12-17T05:13:02.448Z,24.63
2022-12-17T05:15:52.927Z,25.13
2022-12-17T05:18:33.968Z,26.97
2022-12-17T05:21:19.580Z,31.08
2022-12-17T05:24:05.940Z,25.37
2022-12-17T05:26:45.438Z,26.67
2022-12-17T05:29:31.112Z,26.27
2022-12-17T05:32:16.675Z,25.93
2022-12-17T05:35:03.871Z,27.83
2022-12-17T05:37:49.394Z,26.17
2022-12-17T05:40:35.292Z,28.33
2022-12-17T05:43:20.893Z,31.98
2022-12-17T05:46:07.188Z,23.23
2022-12-17T05:48:52.969Z,29.83
2022-12-17T05:51:39.399Z,27.23
2022-12-17T05:54:24.922Z,25.70
2022-12-17T05:57:10.760Z,25.67
2022-12-17T05:59:56.353Z,24.00
2022-12-17T06:02:42.231Z,24.27
2022-12-17T06:05:28.030Z,25.20
2022-12-17T06:08:13.771Z,24.10
2022-12-17T06:10:59.407Z,24.93
2022-12-17T06:13:45.241Z,23.93
2022-12-17T06:16:31.088Z,22.83
2022-12-17T06:19:17.147Z,33.97
2022-12-17T06:22:03.388Z,33.13
2022-12-17T06:24:49.108Z,28.87
2022-12-17T06:27:34.820Z,21.83
2022-12-17T06:30:20.452Z,23.23
2022-12-17T06:33:06.397Z,25.07
2022-12-17T06:35:52.305Z,25.17
2022-12-17T06:38:37.977Z,24.63
2022-12-17T06:41:23.717Z,24.63
2022-12-17T06:44:09.192Z,22.83
2022-12-17T06:46:54.971Z,26.80
2022-12-17T06:49:40.627Z,25.70
2022-12-17T06:52:26.268Z,28.30
2022-12-17T06:55:12.540Z,21.07
2022-12-17T06:57:58.260Z,19.93
2022-12-17T07:00:44.354Z,19.73
2022-12-17T07:03:30.105Z,21.67
2022-12-17T07:06:15.648Z,24.95
2022-12-17T07:09:01.635Z,21.20
2022-12-17T07:11:47.681Z,21.17
2022-12-17T07:14:33.224Z,20.93
2022-12-17T07:17:19.052Z,19.43
2022-12-17T07:20:04.744Z,20.57
2022-12-17T07:22:51.104Z,24.07
2022-12-17T07:25:40.451Z,23.33
2022-12-17T07:28:23.334Z,19.80
2022-12-17T07:31:10.250Z,19.30
2022-12-17T07:33:56.105Z,19.70
2022-12-17T07:36:41.755Z,20.60
2022-12-17T07:39:27.211Z,17.20
2022-12-17T07:42:13.797Z,16.53
2022-12-17T07:44:59.991Z,15.10
2022-12-17T07:47:45.779Z,19.50
2022-12-17T07:50:32.112Z,24.27
2022-12-17T07:53:18.206Z,23.43
2022-12-17T07:56:04.213Z,17.27
2022-12-17T07:58:49.847Z,19.90
2022-12-17T08:01:35.436Z,16.30
2022-12-17T08:04:22.093Z,18.30
2022-12-17T08:07:11.267Z,19.97
2022-12-17T08:09:53.615Z,20.50
2022-12-17T08:12:40.338Z,22.90
2022-12-17T08:15:25.961Z,21.13
2022-12-17T08:18:11.572Z,20.20
2022-12-17T08:20:57.195Z,21.47
2022-12-17T08:23:42.828Z,26.52
2022-12-17T08:26:28.665Z,22.67
2022-12-17T08:29:14.011Z,19.90
2022-12-17T08:32:00.942Z,19.20
2022-12-17T08:34:46.398Z,20.10
2022-12-17T08:37:31.981Z,19.30
2022-12-17T08:40:11.312Z,22.07
2022-12-17T08:42:56.904Z,20.80
2022-12-17T08:45:43.647Z,22.13
2022-12-17T08:48:14.022Z,19.53
2022-12-17T08:50:59.546Z,20.27
2022-12-17T08:53:45.508Z,23.07
2022-12-17T08:56:31.135Z,22.57
2022-12-17T08:59:16.767Z,18.63
2022-12-17T09:02:02.668Z,21.23
2022-12-17T09:04:48.932Z,24.33
2022-12-17T09:07:34.765Z,25.03
2022-12-17T09:10:20.780Z,18.27
2022-12-17T09:13:06.818Z,24.57
2022-12-17T09:15:52.774Z,23.60
2022-12-17T09:18:38.527Z,22.07
2022-12-17T09:21:25.111Z,22.07
2022-12-17T09:24:11.786Z,23.77
2022-12-17T09:26:58.305Z,22.80
2022-12-17T09:29:43.789Z,20.80
2022-12-17T09:32:29.826Z,23.97
2022-12-17T09:35:15.182Z,20.87
2022-12-17T09:38:02.734Z,21.07
2022-12-17T09:40:48.444Z,22.93
2022-12-17T09:43:42.791Z,19.67
2022-12-17T09:46:28.376Z,19.53
2022-12-17T09:49:14.158Z,25.60
2022-12-17T09:52:00.664Z,23.40
2022-12-17T09:54:48.988Z,25.53
2022-12-17T09:57:34.840Z,23.57
2022-12-17T10:00:36.198Z,22.17
2022-12-17T10:03:21.928Z,23.87
2022-12-17T10:06:07.469Z,21.33
2022-12-17T10:08:34.994Z,26.27
2022-12-17T10:11:21.148Z,25.10
2022-12-17T10:14:07.549Z,20.97
2022-12-17T10:16:53.929Z,23.83
2022-12-17T10:19:47.914Z,20.80
2022-12-17T10:22:33.494Z,25.40
2022-12-17T10:25:25.132Z,31.08
2022-12-17T10:28:10.788Z,24.73
2022-12-17T10:30:56.715Z,24.57
2022-12-17T10:33:42.459Z,27.93
2022-12-17T10:36:40.146Z,25.97
2022-12-17T10:39:26.074Z,21.30
2022-12-17T10:42:11.684Z,23.90
2022-12-17T10:44:57.212Z,22.43
2022-12-17T10:47:43.924Z,24.57
2022-12-17T10:50:33.828Z,23.73
2022-12-17T10:53:19.353Z,23.90
2022-12-17T10:56:11.547Z,24.83
2022-12-17T10:58:57.022Z,26.40
2022-12-17T11:01:43.059Z,25.80
2022-12-17T11:04:44.018Z,24.43
2022-12-17T11:07:31.018Z,24.27
2022-12-17T11:10:16.708Z,28.40
2022-12-17T11:13:02.626Z,26.05
2022-12-17T11:16:01.222Z,28.77
2022-12-17T11:18:56.151Z,25.93
2022-12-17T11:21:41.708Z,28.42
2022-12-17T11:24:39.920Z,25.13
2022-12-17T11:27:25.548Z,23.93
2022-12-17T11:30:11.244Z,27.67
2022-12-17T11:33:03.531Z,23.17
2022-12-17T11:35:51.911Z,21.77
2022-12-17T11:38:46.167Z,24.60
2022-12-17T11:41:35.108Z,25.10
2022-12-17T11:44:41.721Z,26.87
2022-12-17T11:47:32.818Z,26.43
2022-12-17T11:50:30.298Z,31.77
2022-12-17T11:53:34.409Z,27.93
2022-12-17T11:56:26.125Z,31.73
2022-12-17T11:59:11.513Z,30.52
2022-12-17T12:02:00.012Z,25.03
2022-12-17T12:04:58.116Z,29.57
2022-12-17T12:07:49.746Z,28.13
2022-12-17T12:10:44.641Z,26.90
2022-12-17T12:13:30.558Z,29.80
2022-12-17T12:16:43.353Z,32.15
2022-12-17T12:19:43.994Z,29.77
2022-12-17T12:22:38.586Z,27.70
2022-12-17T12:25:42.246Z,32.73
2022-12-17T12:28:42.748Z,30.40
2022-12-17T12:31:46.564Z,27.07
2022-12-17T12:34:34.823Z,29.83
2022-12-17T12:37:15.092Z,28.97
2022-12-17T12:40:03.295Z,28.60
2022-12-17T12:42:57.677Z,29.73
2022-12-17T12:46:11.445Z,27.90
2022-12-17T12:49:09.164Z,33.97
2022-12-17T12:51:55.640Z,26.13
2022-12-17T12:54:41.606Z,31.47
2022-12-17T12:57:46.370Z,29.37
2022-12-17T13:00:56.897Z,34.63
2022-12-17T13:03:49.178Z,33.80
2022-12-17T13:06:41.176Z,28.60
2022-12-17T13:09:15.730Z,28.77
2022-12-17T13:11:46.218Z,34.13
2022-12-17T13:14:19.414Z,28.30
2022-12-17T13:16:55.417Z,27.63
2022-12-17T13:19:32.454Z,33.37
2022-12-17T13:22:20.252Z,30.03
2022-12-17T13:24:43.089Z,28.00
2022-12-17T13:27:32.265Z,31.87
2022-12-17T13:30:11.714Z,29.67
2022-12-17T13:32:39.298Z,34.00
2022-12-17T13:35:25.914Z,40.80
2022-12-17T13:38:03.295Z,32.97
2022-12-17T13:40:40.381Z,30.40
2022-12-17T13:43:23.680Z,29.60
2022-12-17T13:45:51.346Z,31.30
2022-12-17T13:48:21.695Z,36.00
2022-12-17T13:51:01.676Z,29.67
2022-12-17T13:53:29.173Z,29.97
2022-12-17T13:55:56.716Z,37.17
2022-12-17T13:58:24.303Z,38.05
2022-12-17T14:00:51.920Z,34.17
2022-12-17T14:03:37.083Z,36.47
2022-12-17T14:05:50.814Z,29.33
2022-12-17T14:08:18.402Z,28.83
2022-12-17T14:10:45.902Z,32.53
2022-12-17T14:13:14.008Z,28.57
2022-12-17T14:15:41.552Z,27.63
2022-12-17T14:18:09.097Z,28.60
2022-12-17T14:20:37.450Z,31.10
2022-12-17T14:23:05.015Z,27.40
2022-12-17T14:25:38.227Z,30.20
2022-12-17T14:28:06.602Z,32.40
2022-12-17T14:30:43.048Z,31.67
2022-12-17T14:33:06.044Z,30.07
2022-12-17T14:35:36.275Z,35.47
2022-12-17T14:38:03.811Z,34.20
2022-12-17T14:40:31.334Z,27.03
2022-12-17T14:42:58.917Z,28.40
2022-12-17T14:45:27.211Z,34.93
2022-12-17T14:48:00.489Z,33.70
2022-12-17T14:50:28.818Z,32.87
2022-12-17T14:52:57.676Z,29.73
2022-12-17T14:55:55.181Z,28.20
2022-12-17T14:58:18.775Z,25.83
2022-12-17T15:00:53.000Z,29.77
2022-12-17T15:03:27.223Z,29.53
2022-12-17T15:06:03.622Z,30.33
2022-12-17T15:08:31.187Z,30.30
2022-12-17T15:10:58.721Z,32.33
2022-12-17T15:13:26.255Z,26.97
2022-12-17T15:15:54.589Z,31.47
2022-12-17T15:18:22.142Z,31.53
2022-12-17T15:20:49.689Z,30.13
2022-12-17T15:23:17.262Z,32.70
2022-12-17T15:25:47.050Z,31.90
2022-12-17T15:28:12.368Z,31.07
2022-12-17T15:30:40.020Z,32.37
2022-12-17T15:33:07.454Z,33.03
2022-12-17T15:35:35.890Z,30.40
2022-12-17T15:38:03.476Z,32.30
2022-12-17T15:40:31.766Z,32.30
2022-12-17T15:43:13.109Z,30.13
2022-12-17T15:45:46.371Z,31.80
2022-12-17T15:48:13.873Z,29.80
2022-12-17T15:50:41.474Z,27.10
2022-12-17T15:53:09.020Z,29.40
2022-12-17T15:55:37.323Z,27.40
2022-12-17T15:58:04.921Z,27.13
2022-12-17T16:00:32.455Z,29.50
2022-12-17T16:03:00.129Z,23.57
2022-12-17T16:05:27.609Z,24.90
2022-12-17T16:07:55.170Z,33.90
2022-12-17T16:10:22.693Z,33.80
2022-12-17T16:12:50.277Z,34.23
2022-12-17T16:15:17.817Z,29.73
2022-12-17T16:17:45.364Z,36.93
2022-12-17T16:20:12.999Z,31.97
2022-12-17T16:22:40.568Z,31.90
2022-12-17T16:25:08.196Z,30.63
2022-12-17T16:27:35.757Z,29.27
2022-12-17T16:30:04.094Z,29.33
2022-12-17T16:32:36.189Z,26.97
2022-12-17T16:34:59.496Z,29.83
2022-12-17T16:37:27.026Z,27.40
2022-12-17T16:39:59.811Z,31.27
2022-12-17T16:42:22.932Z,28.97
2022-12-17T16:44:50.485Z,29.03
2022-12-17T16:47:18.054Z,32.57
2022-12-17T16:49:45.633Z,25.53
2022-12-17T16:52:13.924Z,25.33
2022-12-17T16:54:41.465Z,23.07
2022-12-17T16:57:09.815Z,29.90
2022-12-17T16:59:37.372Z,29.67
2022-12-17T17:02:05.025Z,32.40
2022-12-17T17:04:32.480Z,29.90
2022-12-17T17:07:00.013Z,27.00
2022-12-17T17:09:27.648Z,28.83
2022-12-17T17:11:56.016Z,27.03
2022-12-17T17:14:23.561Z,27.60
2022-12-17T17:16:51.106Z,24.77
2022-12-17T17:19:19.522Z,27.37
2022-12-17T17:21:49.106Z,24.90
2022-12-17T17:24:20.883Z,31.90
2022-12-17T17:26:44.225Z,32.30
2022-12-17T17:29:11.765Z,29.43
2022-12-17T17:34:09.797Z,30.80
2022-12-17T17:36:38.112Z,26.23
2022-12-17T17:39:05.638Z,28.97
2022-12-17T17:41:33.989Z,30.13
2022-12-17T17:44:07.291Z,26.23
2022-12-17T17:46:34.866Z,24.57
2022-12-17T17:49:02.402Z,25.37
2022-12-17T17:52:07.213Z,29.23
2022-12-17T17:53:57.486Z,25.07
2022-12-17T17:56:25.069Z,28.47
2022-12-17T17:58:52.600Z,26.07
2022-12-17T18:01:26.027Z,22.43
2022-12-17T18:03:53.606Z,25.03
2022-12-17T18:06:21.035Z,27.37
2022-12-17T18:08:48.572Z,28.97
2022-12-17T18:11:21.528Z,30.97
2022-12-17T18:13:55.731Z,26.70
2022-12-17T18:16:29.675Z,30.13
2022-12-17T18:18:57.128Z,30.03
2022-12-17T18:21:24.735Z,31.30
2022-12-17T18:23:58.280Z,32.27
2022-12-17T18:26:25.807Z,29.60
2022-12-17T18:28:54.101Z,25.80
2022-12-17T18:31:21.737Z,25.13
2022-12-17T18:33:49.230Z,29.73
2022-12-17T18:36:16.764Z,29.37
2022-12-17T18:38:45.097Z,30.50
2022-12-17T18:41:30.561Z,26.57
2022-12-17T18:44:00.990Z,31.27
2022-12-17T18:46:28.586Z,28.63
2022-12-17T18:48:59.197Z,28.20
2022-12-17T18:51:26.765Z,30.43
2022-12-17T18:53:56.821Z,33.17
2022-12-17T18:56:52.445Z,27.60
2022-12-17T18:58:52.719Z,26.37
2022-12-17T19:01:20.355Z,28.53
2022-12-17T19:03:47.809Z,34.13
2022-12-17T19:06:15.962Z,29.83
2022-12-17T19:08:43.496Z,27.63
2022-12-17T19:11:11.789Z,30.73
2022-12-17T19:13:39.353Z,27.80
2022-12-17T19:16:09.738Z,28.77
2022-12-17T19:18:37.586Z,34.97
2022-12-17T19:21:04.824Z,33.27
2022-12-17T19:23:33.682Z,32.33
2022-12-17T19:26:05.910Z,28.33
2022-12-17T19:28:33.508Z,34.67
2022-12-17T19:31:01.028Z,36.10
2022-12-17T19:33:28.564Z,32.73
2022-12-17T19:36:05.158Z,33.33
2022-12-17T19:38:32.692Z,29.13
2022-12-17T19:41:12.179Z,26.83
2022-12-17T19:43:40.473Z,30.23
2022-12-17T19:46:10.718Z,29.90
2022-12-17T19:48:41.303Z,36.87
2022-12-17T19:51:06.543Z,26.23
2022-12-17T19:53:34.077Z,30.07
2022-12-17T19:56:14.370Z,28.67
2022-12-17T19:58:42.116Z,32.13
2022-12-17T20:01:09.507Z,32.37
2022-12-17T20:03:37.076Z,34.97
2022-12-17T20:06:05.324Z,35.37
2022-12-17T20:08:32.868Z,33.53
2022-12-17T20:11:00.479Z,37.25
2022-12-17T20:13:28.002Z,32.70
2022-12-17T20:16:01.233Z,38.03
2022-12-17T20:18:28.810Z,32.17
2022-12-17T20:21:02.919Z,30.63
2022-12-17T20:23:31.246Z,28.30
2022-12-17T20:26:01.593Z,32.10
2022-12-17T20:28:29.180Z,29.87
2022-12-17T20:30:58.120Z,33.13
2022-12-17T20:33:24.646Z,33.03
2022-12-17T20:35:52.183Z,33.10
2022-12-17T20:38:20.503Z,34.73
2022-12-17T20:40:49.259Z,29.37
2022-12-17T20:43:16.801Z,34.57
2022-12-17T20:45:48.107Z,28.27
2022-12-17T20:48:15.933Z,27.50
2022-12-17T20:50:43.479Z,33.23
2022-12-17T20:53:11.793Z,34.40
2022-12-17T20:55:39.665Z,36.40
2022-12-17T20:58:07.178Z,40.00
2022-12-17T21:00:34.702Z,38.80
2022-12-17T21:03:02.404Z,35.00
2022-12-17T21:05:29.817Z,42.77
2022-12-17T21:07:57.380Z,41.60
2022-12-17T21:10:25.929Z,38.97
2022-12-17T21:13:11.629Z,45.57
2022-12-17T21:15:40.120Z,45.65
2022-12-17T21:18:07.678Z,49.22
2022-12-17T21:20:35.199Z,53.67
2022-12-17T21:23:02.789Z,56.67
2022-12-17T21:25:30.319Z,60.93
2022-12-17T21:27:57.854Z,55.43
2022-12-17T21:30:26.219Z,51.33
2022-12-17T21:32:53.720Z,47.87
2022-12-17T21:35:21.244Z,53.67
2022-12-17T21:37:50.680Z,43.03
2022-12-17T21:40:18.206Z,35.57
2022-12-17T21:43:01.829Z,38.60
2022-12-17T21:45:36.139Z,39.63
2022-12-17T21:48:03.684Z,35.20
2022-12-17T21:50:31.621Z,30.00
2022-12-17T21:52:59.185Z,34.57
2022-12-17T21:55:26.710Z,35.60
2022-12-17T21:57:55.072Z,33.90
2022-12-17T22:00:23.374Z,29.83
2022-12-17T22:02:50.991Z,29.93
2022-12-17T22:05:18.571Z,28.90
2022-12-17T22:07:46.893Z,30.57
2022-12-17T22:10:38.450Z,30.03
2022-12-17T22:13:00.713Z,32.57
2022-12-17T22:15:32.574Z,35.07
2022-12-17T22:17:56.537Z,34.33
2022-12-17T22:20:24.900Z,34.27
2022-12-17T22:22:52.453Z,32.03
2022-12-17T22:25:19.989Z,41.07
2022-12-17T22:27:49.366Z,35.87
2022-12-17T22:30:34.871Z,38.70
2022-12-17T22:33:07.619Z,35.37
2022-12-17T22:37:45.143Z,33.43
2022-12-17T22:41:10.081Z,32.47
2022-12-17T22:44:32.116Z,36.30
2022-12-17T22:44:42.467Z,32.87
2022-12-17T22:45:41.704Z,36.27
2022-12-17T22:48:09.253Z,34.23
2022-12-17T22:50:46.195Z,31.47
2022-12-17T22:53:05.136Z,34.13
2022-12-17T22:55:32.678Z,30.93
2022-12-17T22:58:00.217Z,28.23
2022-12-17T23:00:28.104Z,35.80
2022-12-17T23:02:55.655Z,37.13
2022-12-17T23:05:23.935Z,34.23
2022-12-17T23:07:51.505Z,32.13
2022-12-17T23:10:19.060Z,44.40
2022-12-17T23:12:52.582Z,42.28
2022-12-17T23:15:25.589Z,46.75
2022-12-17T23:17:53.114Z,46.15
2022-12-17T23:20:20.661Z,46.90
2022-12-17T23:22:48.834Z,50.57
2022-12-17T23:25:16.374Z,48.65
2022-12-17T23:27:43.997Z,47.37
2022-12-17T23:30:11.764Z,42.13
2022-12-17T23:32:40.055Z,44.37
2022-12-17T23:35:08.471Z,47.73
2022-12-17T23:37:39.957Z,40.83
2022-12-17T23:40:05.309Z,43.33
2022-12-17T23:42:32.838Z,36.50
2022-12-17T23:45:00.939Z,38.40
2022-12-17T23:47:28.464Z,40.40
2022-12-17T23:49:56.000Z,41.00
2022-12-17T23:52:23.563Z,37.40
2022-12-17T23:54:51.098Z,37.37
2022-12-17T23:57:18.644Z,39.17
2022-12-17T23:59:46.514Z,36.80
